Date,TemperatureHighF,TemperatureAvgF,TemperatureLowF,DewpointHighF,DewpointAvgF,DewpointLowF,HumidityHigh,HumidityAvg,HumidityLow,PressureMaxIn,PressureMinIn,WindSpeedMaxMPH,WindSpeedAvgMPH,GustSpeedMaxMPH,PrecipitationSumIn
2013-1-1,43,37,32,31,27,21,76,67,57,29.97,29.86,10,1,10,0.00
2013-1-2,39,32,26,28,20,14,76,61,42,30.17,29.95,9,3,11,0.00
2013-1-3,49,29,18,27,17,12,78,63,40,30.18,30.07,9,1,9,0.00
2013-1-4,43,35,31,23,20,18,63,55,43,30.16,30.07,10,4,14,0.00
2013-1-5,38,33,31,22,19,18,61,56,50,30.32,30.10,10,3,11,0.00
2013-1-6,46,38,30,31,27,22,78,64,53,30.12,29.98,8,1,8,0.00
2013-1-7,49,37,25,30,25,18,77,62,42,30.40,30.10,9,2,9,0.00
2013-1-8,59,36,23,36,26,18,85,67,39,30.34,30.27,11,2,11,0.00
2013-1-9,56,41,27,45,31,21,82,69,42,30.37,30.18,11,2,11,0.00
2013-1-10,63,47,38,36,29,25,62,51,36,30.54,30.36,7,2,9,0.00
2013-1-11,50,43,38,40,33,26,87,69,55,30.40,30.03,8,2,8,0.09
2013-1-12,61,46,40,52,42,37,90,85,70,30.12,30.04,4,1,4,0.00
2013-1-13,65,51,39,57,46,36,92,84,72,30.05,29.93,4,1,4,0.00
2013-1-20,55,41,30,26,12,7,40,30,23,30.03,29.83,10,3,10,0.00
2013-1-21,47,32,24,23,15,8,65,50,29,30.04,29.75,10,2,10,0.00
2013-1-22,26,18,13,10,-2,-6,52,41,32,30.21,29.92,11,3,11,0.00
2013-1-23,25,19,12,9,0,-2,62,45,32,30.26,30.05,8,2,8,0.00
2013-1-24,20,18,16,12,10,8,80,72,61,30.25,30.01,6,1,6,0.00
2013-1-25,23,17,10,15,7,-1,78,64,51,30.45,29.99,8,1,8,0.00
2013-1-26,34,26,19,25,19,12,81,73,61,30.38,30.00,8,1,8,0.01
2013-1-27,44,30,22,25,17,12,69,58,42,30.52,30.37,7,1,7,0.03
2013-1-28,50,39,29,43,33,19,88,79,67,30.38,30.00,10,3,10,0.03
2013-1-29,74,58,49,56,49,42,86,72,53,30.07,29.90,10,2,10,0.00
2013-1-30,72,57,48,60,52,43,91,83,65,29.90,29.22,23,3,23,1.39
2013-1-31,55,38,29,53,24,11,92,59,43,29.85,29.15,14,4,14,0.86
2013-2-1,29,23,15,23,8,1,84,53,37,30.31,29.75,14,4,14,0.00
2013-2-2,29,21,12,22,10,2,79,65,49,30.31,29.94,6,1,6,0.00
2013-2-3,36,29,24,30,22,11,84,74,49,29.94,29.75,11,1,11,0.01
2013-2-4,41,31,22,21,15,10,64,53,39,30.02,29.82,10,2,10,0.00
2013-2-5,39,34,31,32,27,21,84,74,63,29.89,29.78,5,1,5,0.00
2013-2-6,45,36,27,32,27,20,89,70,50,30.28,29.88,9,2,9,0.01
2013-2-7,39,32,24,27,23,18,80,69,56,30.35,30.13,9,2,9,0.00
2013-2-8,41,35,31,34,28,20,87,75,60,30.13,29.75,15,3,15,0.07
2013-2-9,43,32,22,21,17,12,72,54,31,30.34,29.95,16,5,16,0.00
2013-2-10,48,32,16,25,17,10,81,56,35,30.39,30.13,10,2,10,0.00
2013-2-11,67,50,36,52,35,22,88,61,23,30.13,29.66,19,4,19,0.11
2013-2-12,61,48,36,31,25,21,59,41,27,29.94,29.80,14,3,14,0.00
2013-2-13,45,36,30,31,26,19,88,68,53,29.89,29.62,6,1,6,0.05
2013-2-14,53,39,30,33,27,23,88,65,43,29.95,29.74,10,2,10,0.13
2013-2-15,56,40,32,38,30,24,84,68,42,29.99,29.88,10,2,10,0.11
2013-2-16,37,33,27,30,22,12,89,66,50,29.95,29.82,11,3,11,0.09
2013-2-17,28,24,21,14,9,4,65,52,41,30.17,29.82,13,4,13,0.00
2013-2-18,47,31,18,19,12,5,59,45,29,30.31,30.04,11,2,11,0.00
2013-2-19,55,40,32,40,28,17,79,62,48,30.04,29.63,19,4,19,0.06
2013-2-20,37,30,23,20,14,9,56,50,41,30.12,29.82,14,4,14,0.00
2013-2-21,39,28,22,18,13,8,61,53,41,30.27,30.08,12,3,12,0.00
2013-2-22,32,30,26,26,21,14,79,70,60,30.31,30.10,8,2,8,0.00
2013-2-23,54,40,32,41,32,26,81,74,60,30.11,29.79,5,1,5,0.01
2013-2-24,51,41,30,29,23,17,62,51,38,30.09,29.84,15,5,15,0.00
2013-2-25,50,39,26,26,21,16,72,49,37,30.17,30.08,7,1,7,0.00
2013-2-26,39,33,25,37,27,16,91,79,63,30.15,29.60,8,2,8,0.37
2013-2-27,54,44,36,42,34,31,91,71,46,29.66,29.53,13,2,13,0.28
2013-2-28,43,40,36,32,27,24,69,60,49,29.71,29.60,8,2,8,0.00
2013-3-1,40,37,33,28,25,22,69,62,54,29.87,29.71,9,3,9,0.00
2013-3-2,35,31,29,22,20,18,67,62,54,29.86,29.78,10,3,10,0.00
2013-3-3,39,32,28,20,18,14,67,57,42,29.90,29.79,13,4,13,0.00
2013-3-4,43,33,25,18,15,12,59,49,32,30.00,29.85,9,3,9,0.00
2013-3-5,54,41,31,27,21,16,75,46,31,30.01,29.75,7,2,7,0.00
2013-3-6,39,36,32,33,30,27,90,80,63,29.99,29.63,21,5,21,0.37
2013-3-7,44,40,36,28,27,26,70,60,50,30.14,29.99,10,4,10,0.02
2013-3-8,44,38,34,29,26,24,72,63,53,30.27,30.13,11,5,11,0.01
2013-3-9,62,46,25,34,26,19,81,47,24,30.33,30.21,5,1,5,0.00
2013-3-10,67,48,29,36,27,21,77,48,28,30.25,30.12,13,3,13,0.00
2013-3-11,60,51,42,47,36,24,76,57,37,30.13,29.81,14,4,14,0.00
2013-3-12,57,50,40,50,40,28,88,70,51,29.94,29.71,15,4,15,0.73
2013-3-13,40,33,31,27,23,21,74,67,57,29.94,29.88,2,0,2,0.00
2013-3-14,44,37,29,19,17,13,55,44,36,30.10,30.01,15,6,15,0.00
2013-3-15,61,46,30,35,24,16,57,44,33,30.06,29.74,15,4,15,0.00
2013-3-16,60,44,37,44,36,31,80,74,55,29.87,29.59,11,3,11,0.02
2013-3-17,39,37,36,32,28,25,81,70,59,30.20,29.87,9,2,9,0.00
2013-3-18,36,33,31,30,28,26,88,83,70,30.23,29.83,5,1,5,0.26
2013-3-19,59,43,32,37,24,9,91,57,21,29.89,29.68,15,3,15,0.24
2013-3-20,53,41,32,29,16,10,73,37,23,29.94,29.71,15,4,15,0.00
2013-3-21,35,30,26,27,14,8,72,50,36,29.86,29.74,12,4,12,0.00
2013-3-22,49,37,26,22,16,10,59,43,32,29.96,29.84,13,3,13,0.00
2013-3-23,58,40,23,26,19,14,75,46,25,29.99,29.87,10,2,10,0.00
2013-3-24,43,35,28,27,23,18,80,64,48,29.95,29.58,6,1,6,0.00
2013-3-25,45,36,32,34,30,27,89,80,65,29.66,29.49,7,0,7,0.01
2013-3-26,48,39,32,31,28,26,88,66,47,29.98,29.66,12,3,12,0.02
2013-3-27,47,40,35,34,27,23,73,60,43,30.09,29.97,10,4,13,0.00
2013-3-28,48,41,36,30,27,24,64,58,48,30.20,30.05,11,3,11,0.00
2013-3-29,55,44,37,33,28,23,72,55,32,30.21,30.10,8,1,8,0.00
2013-3-30,64,48,33,34,26,23,70,46,25,30.19,30.05,8,1,8,0.00
2013-3-31,50,45,39,45,36,23,85,71,52,30.05,29.71,4,1,4,0.15
2013-4-1,59,47,38,44,33,18,87,61,42,29.95,29.72,14,4,14,0.02
2013-4-2,48,40,31,20,15,11,51,37,24,30.13,29.95,13,3,13,0.00
2013-4-3,51,39,27,19,15,12,62,40,22,30.33,30.13,13,4,13,0.00
2013-4-4,43,28,22,28,14,10,67,56,35,30.34,30.03,8,1,8,0.00
2013-4-5,66,50,34,38,30,23,87,52,25,30.01,29.80,16,4,16,0.01
2013-4-6,62,54,38,27,23,17,54,32,22,30.27,30.03,9,3,9,0.00
2013-4-7,73,59,40,44,38,26,65,47,35,30.13,29.92,17,4,17,0.00
2013-4-8,83,68,54,49,45,42,67,46,29,30.04,29.89,16,4,16,0.00
2013-4-9,88,74,60,58,52,46,65,48,32,30.06,29.90,16,3,16,0.00
2013-4-10,94,78,62,60,54,48,64,45,30,29.96,29.76,14,3,14,0.00
2013-4-11,91,74,56,63,55,47,76,52,35,29.87,29.69,16,3,16,0.00
2013-4-12,80,64,53,64,54,38,88,72,44,29.76,29.53,14,3,14,0.28
2013-4-13,70,58,49,40,34,27,63,42,23,29.93,29.76,11,3,11,0.00
2013-4-14,71,56,40,43,36,28,70,48,33,30.10,29.93,8,2,8,0.00
2013-4-15,66,59,54,50,46,37,78,61,50,30.22,30.06,10,3,10,0.00
2013-4-16,79,65,54,60,54,48,84,69,52,30.22,30.06,15,4,15,0.00
2013-4-17,79,66,56,65,58,52,88,75,60,30.18,30.09,9,2,9,0.19
2013-4-18,77,68,60,64,57,54,85,71,57,30.18,29.91,13,4,13,0.02
2013-4-19,75,66,53,64,56,37,88,71,55,29.91,29.56,18,4,18,0.49
2013-4-20,59,51,43,39,29,24,62,43,29,30.31,29.77,11,3,11,0.00
2013-4-21,58,46,33,33,27,23,69,49,32,30.53,30.31,9,2,9,0.00
2013-4-22,62,47,33,40,32,25,77,57,38,30.50,30.32,8,1,8,0.00
2013-4-23,63,49,37,46,38,30,78,65,51,30.34,30.05,6,1,6,0.00
2013-4-24,79,60,40,59,47,35,88,66,41,30.05,29.73,21,3,21,0.02
2013-4-25,66,53,43,40,33,28,67,47,28,30.28,30.02,10,2,10,0.01
2013-4-26,68,54,40,42,36,30,72,52,32,30.43,30.26,8,2,8,0.00
2013-4-27,76,59,40,48,40,32,74,52,33,30.36,30.21,8,1,8,0.00
2013-4-28,58,54,49,48,43,38,82,69,51,30.22,30.07,8,2,8,0.11
2013-4-29,63,56,52,56,50,45,87,82,72,30.08,30.00,8,2,8,0.06
2013-4-30,64,57,54,58,52,50,88,84,76,30.26,30.05,8,1,8,0.01
2013-5-1,74,61,51,50,45,38,85,58,30,30.37,30.25,7,1,7,0.00
2013-5-2,72,58,41,51,43,35,83,60,34,30.37,30.27,8,1,8,0.00
2013-5-3,71,56,42,51,43,36,86,63,41,30.33,30.22,7,1,7,0.00
2013-5-4,71,56,41,51,42,34,83,62,40,30.28,30.12,8,1,8,0.00
2013-5-5,67,54,40,46,40,34,85,61,42,30.19,30.08,6,1,7,0.00
2013-5-6,57,52,46,54,47,39,90,82,70,30.13,30.00,5,1,5,0.07
2013-5-7,62,59,55,59,56,52,92,90,87,30.00,29.88,8,2,8,0.99
2013-5-8,71,58,51,59,53,48,92,83,57,29.97,29.89,7,1,7,0.56
2013-5-9,74,61,49,61,53,45,92,77,54,30.00,29.88,8,1,8,0.00
2013-5-10,86,67,53,64,57,48,87,71,41,29.99,29.82,10,2,10,0.62
2013-5-11,77,67,61,65,58,51,90,76,55,29.86,29.71,14,2,14,0.35
2013-5-12,63,57,44,52,37,27,72,50,30,30.00,29.75,12,2,12,0.00
2013-5-13,58,49,41,35,30,24,70,49,28,30.14,29.99,10,1,10,0.00
2013-5-14,68,52,34,42,36,28,81,57,35,30.17,29.97,9,1,9,0.00
2013-5-15,90,77,51,66,55,41,77,50,29,29.97,29.66,12,3,12,0.00
2013-5-16,78,73,66,63,56,52,76,57,44,29.94,29.75,9,1,9,0.02
2013-5-17,85,71,55,64,56,50,84,61,42,30.09,29.92,7,1,7,0.00
2013-5-18,71,65,61,61,57,53,85,75,67,30.18,30.07,6,1,6,0.00
2013-5-19,72,64,59,64,59,55,88,83,72,30.16,30.05,7,1,7,0.00
2013-5-20,84,72,62,72,65,59,91,78,60,30.07,29.95,8,1,8,0.09
2013-5-21,91,76,64,73,66,59,88,72,50,29.97,29.84,8,2,8,0.00
2013-5-22,92,76,66,71,66,62,87,73,41,29.91,29.79,9,2,9,0.26
2013-5-23,80,68,62,69,63,59,90,84,66,29.88,29.72,15,2,15,1.09
2013-5-24,62,55,46,59,44,31,90,68,50,30.17,29.74,16,4,16,0.10
2013-5-25,54,45,42,38,32,30,68,63,52,30.19,30.15,9,2,9,0.00
2013-5-26,72,56,46,44,37,34,69,51,28,30.20,30.11,9,2,9,0.00
2013-5-27,67,57,43,51,45,36,79,64,50,30.25,30.15,7,1,7,0.00
2013-5-28,83,67,54,69,58,48,83,73,57,30.16,30.02,7,1,7,0.02
2013-5-29,87,76,64,69,64,59,86,69,45,30.11,30.04,11,2,11,0.00
2013-5-30,94,79,66,72,65,59,82,64,41,30.18,30.07,8,2,8,0.00
2013-5-31,92,79,66,69,63,59,80,61,40,30.13,29.99,9,2,9,0.00
2013-6-1,94,80,68,72,66,61,79,63,46,30.02,29.89,10,3,10,0.00
2013-6-2,84,74,69,71,65,59,88,74,61,29.89,29.82,14,2,14,0.85
2013-6-3,80,71,64,69,63,54,90,76,62,29.97,29.84,9,1,9,0.53
2013-6-4,77,66,54,54,50,43,78,59,38,30.11,29.97,6,1,6,0.00
2013-6-5,79,66,54,61,55,48,82,68,44,30.14,30.00,8,1,8,0.00
2013-6-6,68,64,61,62,57,51,89,78,65,30.02,29.82,6,1,6,0.54
2013-6-7,68,66,64,64,62,60,91,90,88,29.83,29.63,8,1,8,0.43
2013-6-8,78,69,60,65,61,56,88,76,59,30.08,29.74,6,1,6,0.02
2013-6-9,76,71,61,70,64,56,87,79,67,30.17,30.05,5,1,5,0.05
2013-6-10,81,70,67,72,67,64,91,88,75,30.07,29.78,10,1,10,0.70
2013-6-11,82,72,64,68,64,61,92,76,56,29.86,29.78,7,2,7,0.01
2013-6-12,87,78,67,70,65,60,80,67,51,29.87,29.77,9,2,9,0.00
2013-6-13,82,71,65,71,64,56,89,81,67,29.79,29.48,14,2,14,1.01
2013-6-14,77,68,61,59,54,51,73,61,43,29.99,29.65,10,3,10,0.00
2013-6-15,82,70,59,62,55,52,79,61,40,30.07,29.98,7,1,7,0.00
2013-6-16,82,71,62,68,61,53,80,70,59,30.01,29.88,11,2,11,0.00
2013-6-17,87,76,67,71,66,60,84,71,56,29.96,29.87,8,2,8,0.19
2013-6-18,71,69,66,67,65,62,90,87,80,29.90,29.79,4,1,4,1.14
2013-6-19,76,69,64,66,62,58,89,79,63,30.12,29.87,5,1,5,0.00
2013-6-20,80,70,61,68,62,57,89,76,57,30.22,30.12,9,1,9,0.00
2013-6-21,84,72,59,66,60,53,82,66,47,30.26,30.18,7,1,7,0.00
2013-6-22,88,75,61,70,63,56,84,69,52,30.23,30.10,8,2,8,0.00
2013-6-23,86,76,65,73,66,60,88,73,53,30.16,30.05,8,1,8,0.00
2013-6-24,92,76,67,75,67,62,84,73,52,30.13,30.02,9,2,9,0.10
2013-6-25,92,80,68,75,68,61,85,69,53,30.04,29.89,13,2,13,0.00
2013-6-26,90,77,67,75,67,60,83,72,52,29.92,29.82,10,1,10,0.02
2013-6-27,87,75,68,74,68,64,88,79,63,29.83,29.62,10,1,10,0.52
2013-6-28,90,76,69,73,66,61,84,73,52,29.63,29.49,10,2,10,0.12
2013-6-29,88,74,65,68,63,59,87,69,47,29.69,29.52,10,2,10,0.12
2013-6-30,86,78,67,74,68,59,88,73,47,29.82,29.59,7,1,7,0.00
2013-7-1,82,76,71,72,68,65,84,78,67,29.94,29.82,8,1,8,0.04
2013-7-2,86,76,72,74,69,66,89,79,64,30.12,29.94,8,2,8,0.06
2013-7-3,83,76,71,74,70,55,89,82,47,30.20,29.59,10,2,10,0.07
2013-7-4,89,77,70,75,69,55,89,77,47,30.21,29.59,12,2,12,0.00
2013-7-5,80,78,76,69,60,55,78,57,47,30.16,29.59,5,2,5,0.00
2013-7-6,94,81,72,75,70,66,85,71,49,30.18,29.59,10,2,10,0.00
2013-7-7,92,78,70,76,68,66,88,75,54,30.09,29.99,10,1,10,0.23
2013-7-8,85,76,68,72,67,64,90,75,56,30.11,30.03,7,2,10,0.00
2013-7-9,84,76,71,73,69,65,83,77,64,30.10,29.99,12,2,12,0.00
2013-7-10,85,77,74,76,70,67,86,79,66,30.00,29.85,12,2,12,0.02
2013-7-11,86,76,72,70,67,55,87,74,47,29.94,29.59,8,1,8,0.01
2013-7-12,86,69,65,79,64,53,90,85,50,30.06,29.92,7,1,7,0.65
2013-7-13,85,74,66,79,68,59,91,81,51,30.24,30.05,5,1,5,0.00
2013-7-14,90,78,70,75,70,66,90,78,55,30.32,29.59,9,1,9,0.00
2013-7-15,94,81,69,75,70,58,88,71,47,30.31,30.14,7,1,7,0.00
2013-7-16,94,83,73,77,71,55,84,69,49,30.26,30.17,7,1,7,0.00
2013-7-17,95,84,74,77,71,56,84,68,47,30.23,29.59,8,1,8,0.00
2013-7-18,96,81,75,76,72,55,84,75,47,30.13,29.66,6,1,6,0.00
2013-7-19,98,84,74,78,72,57,83,69,47,30.02,29.88,10,2,15,0.00
2013-7-20,96,82,73,76,70,61,83,68,49,29.90,29.79,12,2,12,0.00
2013-7-21,93,78,71,78,68,54,84,73,49,29.95,29.88,6,1,6,0.04
2013-7-22,88,76,70,74,69,66,89,81,60,29.93,29.74,9,1,9,1.13
2013-7-23,84,77,71,72,68,65,91,75,57,29.76,29.66,10,1,10,1.58
2013-7-24,83,74,67,68,62,56,84,68,54,29.92,29.69,8,2,8,0.01
2013-7-25,80,69,60,60,56,51,74,63,45,30.04,29.92,8,2,8,0.00
2013-7-26,85,69,56,64,58,51,85,69,44,30.09,30.00,7,1,7,0.00
2013-7-27,81,72,63,70,64,58,86,79,64,30.02,29.89,12,2,12,0.00
2013-7-28,84,74,67,71,66,58,88,76,55,29.99,29.85,7,1,7,0.00
2013-7-29,82,70,57,60,56,52,84,62,44,30.15,29.98,9,1,9,0.00
2013-7-30,83,71,59,64,58,52,82,66,50,30.21,30.12,7,1,7,0.00
2013-7-31,79,69,62,68,62,57,87,79,67,30.13,29.98,8,0,8,0.28
2013-8-1,84,73,66,72,66,62,90,80,62,29.98,29.81,9,1,9,0.14
2013-8-2,85,74,63,69,62,58,88,68,44,29.96,29.87,7,1,7,0.00
2013-8-3,73,68,66,66,62,58,88,81,73,29.97,29.92,6,1,6,0.15
2013-8-4,78,70,61,64,58,54,90,70,46,30.03,29.92,11,2,11,0.02
2013-8-5,80,69,56,63,56,50,83,65,43,30.10,29.99,7,1,7,0.00
2013-8-6,79,70,63,70,63,57,87,77,65,30.03,29.96,5,1,5,0.11
2013-8-7,86,74,67,73,68,63,88,81,59,30.03,29.95,11,1,11,0.16
2013-8-8,81,75,69,74,70,65,90,85,74,30.00,29.93,9,1,9,0.09
2013-8-9,84,77,72,77,71,69,91,82,68,29.97,29.87,10,2,10,0.01
2013-8-10,81,75,70,69,66,59,86,74,50,30.07,29.95,4,0,4,0.02
2013-8-11,89,77,69,72,67,63,86,74,51,30.09,29.97,6,1,6,0.00
2013-8-12,89,78,69,70,67,65,88,71,50,30.02,29.89,7,1,7,0.00
2013-8-13,85,75,68,73,67,58,88,76,56,29.89,29.74,6,1,6,0.22
2013-8-14,73,66,57,59,51,47,72,61,47,30.10,29.84,10,2,10,0.00
2013-8-15,80,65,51,58,51,46,86,63,38,30.17,30.07,6,1,6,0.00
2013-8-16,83,66,52,62,53,47,85,65,39,30.18,30.10,8,1,8,0.00
2013-8-17,80,68,53,62,56,48,85,68,48,30.25,30.18,7,1,7,0.00
2013-8-18,69,65,62,61,59,58,86,81,72,30.23,30.15,5,1,5,0.12
2013-8-19,80,69,60,69,63,57,90,82,67,30.15,30.03,6,1,6,0.00
2013-8-20,86,74,64,71,64,60,90,74,53,30.16,30.07,7,1,7,0.01
2013-8-21,91,75,65,74,66,60,86,75,54,30.18,30.05,7,1,7,0.07
2013-8-22,86,75,67,70,66,63,88,75,55,30.08,29.93,8,1,8,0.01
2013-8-23,73,69,62,65,63,57,89,81,70,30.11,29.94,5,1,5,0.76
2013-8-24,82,68,56,66,58,53,90,74,48,30.31,30.11,5,1,5,0.01
2013-8-25,84,69,55,66,58,51,88,71,48,30.38,30.23,10,1,10,0.00
2013-8-26,88,74,63,67,62,57,83,68,47,30.25,30.01,11,2,11,0.00
2013-8-27,86,77,69,72,67,61,80,71,61,30.01,29.89,8,1,8,0.00
2013-8-28,76,73,71,71,68,66,90,85,76,29.92,29.79,8,1,8,0.27
2013-8-29,83,75,69,72,68,64,90,81,65,30.01,29.84,6,1,6,0.01
2013-8-30,89,76,64,72,67,61,91,75,51,30.01,29.86,14,2,14,0.00
2013-8-31,90,77,71,73,68,65,85,76,53,29.88,29.78,10,3,10,0.00
2013-9-1,92,77,69,73,67,64,85,73,51,29.85,29.75,8,2,8,0.01
2013-9-2,90,79,70,73,68,65,87,72,51,29.81,29.72,6,1,6,0.00
2013-9-3,85,75,65,67,60,54,78,62,43,29.98,29.75,5,1,5,0.00
2013-9-4,83,70,57,59,55,51,83,62,40,30.08,29.98,5,1,5,0.00
2013-9-5,83,70,59,62,56,50,81,63,43,30.12,30.02,6,2,6,0.00
2013-9-6,79,64,53,54,49,45,76,59,39,30.24,30.11,4,1,4,0.00
2013-9-7,85,67,52,60,53,45,83,63,41,30.12,29.93,6,1,6,0.00
2013-9-8,89,74,63,67,61,54,79,65,49,30.03,29.87,9,2,9,0.00
2013-9-9,79,70,63,64,58,51,79,65,50,30.17,30.03,4,1,4,0.00
2013-9-10,94,80,66,73,68,61,84,68,49,30.15,30.07,7,3,7,0.00
2013-9-11,96,82,72,74,70,67,84,67,47,30.14,30.00,7,2,7,0.00
2013-9-12,95,81,71,72,67,62,82,63,45,29.94,29.74,13,2,13,0.01
2013-9-13,78,69,58,62,54,46,79,60,42,29.95,29.71,10,2,10,0.02
2013-9-14,67,58,50,46,44,41,76,60,44,30.13,29.95,9,1,9,0.00
2013-9-15,79,62,46,57,50,41,85,66,42,30.18,30.04,9,2,9,0.00
2013-9-16,68,63,59,57,55,51,85,74,61,30.20,30.00,8,1,8,0.11
2013-9-17,71,59,47,52,44,38,80,60,34,30.39,30.20,7,1,7,0.00
2013-9-18,75,57,40,52,44,35,83,64,41,30.29,30.13,9,1,9,0.00
2013-9-19,78,62,49,60,52,44,84,70,52,30.15,30.04,9,1,10,0.00
2013-9-20,84,68,55,66,58,50,87,71,52,30.05,29.91,8,1,8,0.00
2013-9-21,72,65,60,63,60,57,88,82,73,29.91,29.66,9,2,9,0.78
2013-9-22,70,61,53,58,52,45,89,72,48,29.95,29.73,10,1,10,0.01
2013-9-23,67,57,49,48,44,41,79,65,47,30.07,29.94,9,2,9,0.00
2013-9-24,73,56,41,54,45,36,86,69,47,30.08,29.92,5,0,5,0.00
2013-9-25,77,59,45,55,47,40,87,68,40,29.97,29.86,5,0,5,0.00
2013-9-26,77,61,49,56,48,44,84,65,38,30.05,29.90,7,1,7,0.00
2013-9-27,76,59,47,57,49,42,84,70,50,30.19,30.05,4,0,4,0.00
2013-9-28,68,59,50,55,50,45,86,75,58,30.28,30.18,3,0,3,0.00
2013-9-29,76,59,44,58,48,40,90,70,44,30.18,30.02,6,0,6,0.00
2013-9-30,79,62,47,58,50,42,86,67,43,30.06,29.94,8,1,8,0.00
2013-10-1,82,65,56,61,54,50,83,69,42,30.06,29.96,8,1,8,0.00
2013-10-2,88,70,58,64,56,52,81,63,42,30.08,29.99,10,2,10,0.00
2013-10-3,86,71,59,66,59,53,80,67,46,30.11,30.01,8,1,8,0.00
2013-10-4,88,71,61,68,60,55,85,70,48,30.08,29.99,8,1,8,0.00
2013-10-5,91,75,64,69,62,58,84,66,41,30.08,29.97,11,2,11,0.00
2013-10-6,91,74,62,68,62,56,84,66,44,30.00,29.85,14,2,14,0.00
2013-10-7,73,66,56,65,57,43,88,75,54,30.02,29.69,12,2,12,0.12
2013-10-8,71,61,45,50,46,40,84,58,43,30.26,30.04,10,2,10,0.00
2013-10-9,57,50,46,47,43,40,82,77,60,30.30,30.20,3,0,3,0.02
2013-10-10,54,52,51,50,48,45,90,86,78,30.20,30.00,9,2,9,1.29
2013-10-11,59,55,53,56,52,49,91,90,89,30.00,29.94,7,2,7,1.25
2013-10-12,62,60,58,59,57,54,91,90,89,30.15,29.97,6,2,6,0.46
2013-10-13,59,57,56,56,54,54,91,90,89,30.28,30.14,6,1,6,1.08
2013-10-14,64,58,54,57,54,50,91,86,75,30.30,30.19,5,0,5,0.00
2013-10-15,72,60,49,59,52,46,92,77,56,30.20,30.04,5,1,5,0.01
2013-10-16,72,60,51,61,54,47,89,81,66,30.05,29.87,8,1,8,0.00
2013-10-17,76,64,58,64,58,46,87,81,63,29.87,29.68,7,1,7,0.12
2013-10-18,68,58,45,47,42,39,78,58,41,29.99,29.83,8,1,8,0.01
2013-10-19,63,51,42,52,44,37,86,77,60,29.96,29.72,10,1,10,0.10
2013-10-20,63,51,41,41,36,33,75,57,37,30.05,29.87,7,1,7,0.00
2013-10-21,69,53,37,47,40,32,83,63,40,30.07,29.89,7,2,7,0.00
2013-10-22,61,50,39,50,41,31,82,70,49,29.89,29.79,6,1,6,0.00
2013-10-23,51,42,36,39,34,31,82,72,54,29.88,29.65,5,1,5,0.00
2013-10-24,49,42,36,32,29,26,76,61,43,30.09,29.87,8,1,8,0.00
2013-10-25,52,40,31,34,28,24,78,63,46,30.26,30.08,8,2,9,0.00
2013-10-26,57,43,28,33,28,22,79,58,38,30.26,29.88,14,3,14,0.00
2013-10-27,61,50,38,38,34,29,72,54,38,30.07,29.92,8,1,8,0.00
2013-10-31,67,63,55,58,56,50,85,77,70,30.03,29.67,8,2,8,0.01
2013-11-1,76,65,50,60,51,42,85,64,35,29.68,29.50,23,3,23,0.26
2013-11-2,64,52,43,48,41,34,85,65,43,29.86,29.63,10,2,10,0.00
2013-11-3,58,48,37,38,30,22,73,53,32,30.38,29.86,12,2,12,0.00
2013-11-4,46,37,29,27,23,18,68,56,41,30.55,30.38,5,1,5,0.00
2013-11-5,52,44,32,39,32,24,78,63,47,30.55,30.38,6,0,6,0.00
2013-11-6,73,60,46,52,47,39,82,64,47,30.38,29.99,15,4,15,0.00
2013-11-7,58,52,41,52,41,22,86,67,45,30.05,29.83,12,2,12,0.01
2013-11-8,50,41,30,27,24,20,71,51,37,30.25,30.03,10,2,12,0.00
2013-11-9,59,42,28,34,27,20,78,57,33,30.26,29.97,15,2,15,0.00
2013-11-10,60,48,37,36,29,24,67,49,33,30.20,29.94,16,3,16,0.00
2013-11-11,61,47,33,34,28,23,69,49,36,30.23,29.94,11,2,11,0.00
2013-11-12,52,39,30,38,23,14,69,53,42,30.35,29.93,17,4,17,0.00
2013-11-13,43,34,29,20,17,13,64,51,37,30.44,30.33,12,2,12,0.00
2013-11-14,61,44,28,26,20,14,58,41,23,30.28,30.14,9,2,9,0.00
2013-11-15,67,46,29,33,24,16,62,43,21,30.21,30.10,8,1,8,0.01
2013-11-16,67,51,42,51,42,33,84,71,54,30.25,30.14,8,1,8,0.01
2013-11-17,63,56,47,56,50,43,89,82,73,30.15,29.65,13,3,13,0.00
2013-11-18,65,57,47,56,35,25,84,46,24,29.92,29.64,11,4,13,0.00
2013-11-19,48,40,31,27,24,21,68,53,43,30.32,29.92,13,4,13,0.00
2013-11-20,53,35,26,29,21,17,76,59,36,30.48,30.31,7,1,7,0.00
2013-11-21,49,38,26,36,29,18,81,72,62,30.49,30.29,5,0,5,0.00
2013-11-22,65,55,40,51,46,34,80,71,58,30.30,29.97,9,2,9,0.00
2013-11-23,52,41,27,44,26,11,72,54,36,30.18,30.00,14,4,14,0.00
2013-11-24,31,24,20,17,6,3,70,46,33,30.44,30.17,14,5,14,0.00
2013-11-25,43,27,16,15,9,3,66,48,30,30.46,30.23,8,2,8,0.00
2013-11-26,36,34,32,30,25,14,89,71,42,30.23,29.60,10,1,10,0.00
2013-11-27,38,34,26,34,27,10,89,74,50,30.01,29.52,15,4,15,0.00
2013-11-28,40,30,24,20,15,10,61,54,42,30.38,30.01,10,2,10,0.00
2013-11-29,45,31,22,24,19,14,74,61,42,30.63,30.37,11,1,11,0.00
2013-11-30,37,27,18,24,18,12,79,68,55,30.62,30.38,7,1,7,0.00
2013-12-4,53,45,40,42,38,35,88,77,66,29.99,29.95,1,0,2,0.00
2013-12-5,70,56,41,57,49,37,90,79,61,29.99,29.86,10,2,10,0.00
2013-12-6,60,46,36,56,42,33,91,86,83,30.12,29.82,10,3,10,0.00
2013-12-7,41,35,27,33,27,19,88,73,58,30.48,30.08,12,3,12,0.00
2013-12-8,28,26,24,24,20,18,88,79,70,30.49,30.23,5,1,5,0.00
2013-12-9,41,33,28,36,29,24,90,86,79,30.23,29.96,4,0,4,0.00
2013-12-10,40,33,28,33,25,14,90,74,50,30.15,29.92,9,1,9,0.00
2013-12-11,45,27,17,22,15,10,75,61,38,30.31,30.14,8,1,8,0.00
2013-12-12,37,27,18,20,9,4,70,48,30,30.26,30.16,8,2,8,0.00
2013-12-13,42,29,19,20,15,6,70,55,37,30.23,30.13,10,2,10,0.00
2013-12-14,36,32,28,30,26,19,87,78,67,30.23,29.68,6,0,6,0.00
2013-12-15,44,35,31,34,27,21,91,73,54,29.88,29.59,9,2,9,0.00
2013-12-16,36,33,29,27,24,22,76,70,63,30.09,29.87,6,1,6,0.00
2013-12-17,44,34,30,33,27,23,84,76,63,30.05,29.85,7,1,7,0.00
2013-12-18,44,32,24,26,20,16,85,62,42,30.14,29.93,7,1,7,0.00
2013-12-19,62,42,24,37,26,17,75,55,38,30.11,29.99,11,3,11,0.00
2013-12-20,56,49,44,36,32,28,55,51,45,30.02,29.92,10,2,10,0.00
2013-12-21,74,60,50,57,46,36,72,60,49,29.95,29.81,19,5,19,0.00
2013-12-22,70,63,58,61,56,53,88,79,67,29.95,29.74,18,4,18,0.00
2013-12-23,60,50,35,55,43,24,91,76,62,30.19,29.86,10,3,10,0.00
2013-12-24,38,30,20,24,17,6,70,58,42,30.41,30.15,13,3,13,0.00
2013-12-25,39,25,17,18,11,7,68,56,39,30.48,30.24,9,1,9,0.00
2013-12-26,46,33,20,25,16,10,68,51,36,30.28,30.15,12,2,12,0.00
2013-12-27,55,36,24,23,18,14,69,50,28,30.34,30.23,12,2,12,0.00
2013-12-28,60,42,31,30,24,17,62,49,31,30.26,30.04,11,3,11,0.00
2013-12-29,48,44,40,43,36,26,90,75,46,30.04,29.53,8,2,11,0.00
2013-12-30,46,38,29,37,29,21,80,69,63,30.10,29.77,9,2,9,0.00
2013-12-31,41,31,24,27,20,14,83,63,43,30.24,30.03,14,2,14,0.00
2014-1-1,57,34,21,33,22,14,75,62,37,30.31,30.03,8,1,8,0.00
2014-1-2,34,30,26,26,24,20,86,77,68,30.03,29.59,5,0,5,0.00